createdAt,value
2017-12-12T00:00:57.393Z,33.97
2017-12-12T00:03:25.606Z,34.97
2017-12-12T00:05:53.755Z,34.83
2017-12-12T00:08:21.840Z,37.10
2017-12-12T00:10:50.124Z,34.83
2017-12-12T00:13:18.256Z,34.00
2017-12-12T00:15:46.459Z,33.63
2017-12-12T00:18:14.561Z,34.93
2017-12-12T00:20:42.707Z,38.57
2017-12-12T00:23:13.756Z,40.60
2017-12-12T00:25:41.887Z,33.77
2017-12-12T00:28:10.001Z,37.67
2017-12-12T00:30:38.163Z,41.20
2017-12-12T00:33:06.257Z,45.43
2017-12-12T00:35:35.427Z,38.00
2017-12-12T00:38:03.508Z,39.67
2017-12-12T00:40:31.619Z,42.07
2017-12-12T00:43:03.405Z,42.57
2017-12-12T00:45:33.423Z,39.73
2017-12-12T00:48:01.706Z,40.40
2017-12-12T00:50:29.862Z,38.70
2017-12-12T00:52:57.976Z,36.60
2017-12-12T00:55:26.080Z,39.73
2017-12-12T00:57:54.243Z,38.23
2017-12-12T01:00:22.356Z,37.97
2017-12-12T01:02:50.776Z,35.33
2017-12-12T01:05:18.903Z,34.07
2017-12-12T01:07:47.002Z,38.20
2017-12-12T01:10:15.083Z,30.67
2017-12-12T01:12:43.257Z,31.83
2017-12-12T01:15:11.368Z,33.80
2017-12-12T01:17:39.474Z,34.20
2017-12-12T01:20:07.620Z,33.17
2017-12-12T01:22:35.742Z,33.10
2017-12-12T01:25:03.976Z,32.33
2017-12-12T01:27:32.875Z,34.77
2017-12-12T01:30:01.844Z,35.83
2017-12-12T01:32:29.956Z,32.97
2017-12-12T01:34:58.603Z,30.60
2017-12-12T01:37:26.811Z,34.33
2017-12-12T01:39:56.015Z,33.00
2017-12-12T01:42:24.098Z,32.87
2017-12-12T01:44:52.305Z,30.53
2017-12-12T01:47:20.426Z,29.23
2017-12-12T01:49:49.292Z,28.73
2017-12-12T01:52:17.421Z,26.87
2017-12-12T01:54:45.547Z,29.77
2017-12-12T01:57:14.444Z,27.63
2017-12-12T01:59:43.356Z,25.67
2017-12-12T02:02:14.435Z,27.43
2017-12-12T02:04:43.468Z,23.90
2017-12-12T02:07:12.343Z,26.23
2017-12-12T02:09:41.600Z,22.13
2017-12-12T02:12:09.722Z,22.93
2017-12-12T02:14:37.828Z,22.53
2017-12-12T02:17:05.949Z,22.50
2017-12-12T02:19:34.098Z,22.73
2017-12-12T02:22:03.231Z,22.40
2017-12-12T02:24:31.727Z,19.87
2017-12-12T02:27:00.598Z,20.10
2017-12-12T02:29:29.022Z,18.27
2017-12-12T02:31:57.179Z,21.13
2017-12-12T02:34:25.279Z,21.27
2017-12-12T02:36:53.505Z,22.30
2017-12-12T02:39:22.009Z,22.17
2017-12-12T02:41:50.938Z,22.30
2017-12-12T02:44:20.869Z,17.77
2017-12-12T02:46:49.037Z,18.30
2017-12-12T02:49:17.220Z,19.73
2017-12-12T02:51:45.322Z,18.33
2017-12-12T02:54:13.516Z,19.67
2017-12-12T02:56:42.399Z,21.37
2017-12-12T02:59:10.576Z,19.50
2017-12-12T03:01:39.572Z,17.97
2017-12-12T03:04:07.733Z,20.50
2017-12-12T03:06:35.861Z,20.00
2017-12-12T03:09:03.972Z,19.60
2017-12-12T03:11:32.104Z,18.97
2017-12-12T03:14:00.233Z,20.73
2017-12-12T03:16:28.362Z,21.50
2017-12-12T03:18:56.514Z,19.03
2017-12-12T03:21:24.635Z,20.37
2017-12-12T03:23:52.731Z,18.83
2017-12-12T03:26:21.696Z,19.63
2017-12-12T03:28:49.784Z,18.00
2017-12-12T03:31:18.672Z,18.37
2017-12-12T03:33:46.837Z,21.50
2017-12-12T03:36:19.658Z,17.40
2017-12-12T03:41:26.584Z,21.63
2017-12-12T03:43:54.919Z,17.83
2017-12-12T03:46:23.003Z,22.20
2017-12-12T03:48:51.170Z,23.10
2017-12-12T03:51:19.258Z,20.33
2017-12-12T03:53:47.324Z,15.73
2017-12-12T03:56:15.444Z,23.93
2017-12-12T03:58:43.519Z,17.50
2017-12-12T04:01:11.709Z,16.63
2017-12-12T04:03:39.796Z,19.30
2017-12-12T04:06:08.853Z,26.40
2017-12-12T04:08:36.915Z,22.27
2017-12-12T04:11:05.077Z,23.17
2017-12-12T04:13:33.147Z,18.73
2017-12-12T04:16:01.340Z,25.57
2017-12-12T04:18:29.436Z,22.43
2017-12-12T04:20:57.565Z,25.37
2017-12-12T04:23:25.704Z,19.10
2017-12-12T04:25:53.844Z,25.13
2017-12-12T04:28:21.932Z,23.27
2017-12-12T04:30:50.337Z,24.50
2017-12-12T04:33:18.701Z,26.10
2017-12-12T04:35:47.715Z,22.07
2017-12-12T04:38:16.041Z,28.13
2017-12-12T04:40:44.117Z,24.77
2017-12-12T04:43:12.279Z,34.00
2017-12-12T04:45:40.466Z,23.93
2017-12-12T04:48:08.577Z,33.07
2017-12-12T04:50:36.836Z,26.60
2017-12-12T04:53:05.016Z,26.47
2017-12-12T04:55:33.862Z,23.93
2017-12-12T04:58:02.021Z,21.70
2017-12-12T05:00:31.416Z,30.43
2017-12-12T05:02:59.529Z,24.33
2017-12-12T05:05:27.712Z,25.03
2017-12-12T05:07:55.923Z,25.60
2017-12-12T05:10:24.103Z,32.20
2017-12-12T05:12:52.577Z,24.40
2017-12-12T05:15:20.684Z,26.03
2017-12-12T05:17:49.726Z,26.13
2017-12-12T05:20:18.662Z,27.77
2017-12-12T05:22:48.747Z,27.40
2017-12-12T05:25:16.905Z,29.17
2017-12-12T05:27:45.093Z,28.50
2017-12-12T05:30:13.986Z,23.13
2017-12-12T05:32:42.942Z,27.70
2017-12-12T05:35:11.059Z,29.90
2017-12-12T05:37:39.161Z,28.03
2017-12-12T05:40:07.308Z,40.30
2017-12-12T05:42:35.399Z,26.40
2017-12-12T05:45:03.579Z,38.67
2017-12-12T05:47:31.668Z,30.10
2017-12-12T05:50:00.712Z,27.60
2017-12-12T05:52:29.840Z,30.00
2017-12-12T05:54:57.980Z,27.63
2017-12-12T05:57:26.188Z,34.00
2017-12-12T05:59:54.333Z,27.70
2017-12-12T06:02:22.418Z,26.57
2017-12-12T06:04:50.607Z,24.93
2017-12-12T06:07:19.003Z,23.73
2017-12-12T06:09:50.143Z,37.87
2017-12-12T06:12:18.228Z,25.47
2017-12-12T06:14:47.387Z,25.47
2017-12-12T06:17:15.644Z,26.50
2017-12-12T06:19:44.503Z,25.60
2017-12-12T06:22:12.771Z,31.80
2017-12-12T06:24:40.847Z,24.83
2017-12-12T06:27:08.945Z,32.00
2017-12-12T06:29:37.304Z,29.93
2017-12-12T06:32:05.475Z,27.03
2017-12-12T06:34:33.804Z,31.97
2017-12-12T06:37:02.034Z,28.13
2017-12-12T06:39:30.299Z,25.23
2017-12-12T06:41:58.380Z,28.23
2017-12-12T06:44:26.473Z,34.07
2017-12-12T06:46:55.412Z,25.40
2017-12-12T06:49:23.552Z,34.47
2017-12-12T06:51:51.683Z,29.87
2017-12-12T06:56:59.515Z,29.10
2017-12-12T06:59:27.619Z,30.70
2017-12-12T07:01:55.801Z,25.37
2017-12-12T07:04:24.800Z,28.03
2017-12-12T07:06:53.935Z,28.90
2017-12-12T07:09:22.099Z,28.77
2017-12-12T07:11:50.248Z,24.77
2017-12-12T07:14:18.606Z,25.77
2017-12-12T07:16:46.765Z,24.10
2017-12-12T07:19:15.616Z,24.57
2017-12-12T07:21:43.699Z,27.00
2017-12-12T07:24:11.917Z,28.93
2017-12-12T07:26:40.314Z,25.40
2017-12-12T07:29:08.524Z,30.60
2017-12-12T07:31:36.899Z,24.27
2017-12-12T07:34:05.007Z,32.20
2017-12-12T07:36:33.109Z,34.33
2017-12-12T07:39:01.244Z,30.80
2017-12-12T07:41:32.994Z,30.13
2017-12-12T07:44:10.827Z,28.27
2017-12-12T07:46:39.002Z,34.93
2017-12-12T07:49:09.264Z,30.27
2017-12-12T07:51:37.356Z,39.47
2017-12-12T07:54:05.636Z,32.57
2017-12-12T07:56:35.827Z,26.87
2017-12-12T07:59:04.012Z,34.77
2017-12-12T08:01:32.153Z,28.10
2017-12-12T08:04:00.351Z,44.77
2017-12-12T08:06:28.476Z,31.97
2017-12-12T08:08:57.369Z,26.77
2017-12-12T08:11:25.485Z,32.70
2017-12-12T08:13:54.110Z,28.00
2017-12-12T08:16:22.201Z,31.10
2017-12-12T08:18:51.252Z,32.40
2017-12-12T08:21:19.408Z,30.00
2017-12-12T08:23:47.553Z,24.97
2017-12-12T08:26:15.736Z,27.50
2017-12-12T08:28:43.895Z,28.40
2017-12-12T08:31:12.092Z,28.00
2017-12-12T08:33:40.427Z,27.90
2017-12-12T08:36:08.535Z,26.40
2017-12-12T08:38:36.682Z,27.10
2017-12-12T08:41:05.693Z,28.23
2017-12-12T08:43:33.818Z,28.87
2017-12-12T08:46:01.929Z,30.87
2017-12-12T08:48:30.092Z,32.33
2017-12-12T08:50:59.020Z,29.30
2017-12-12T08:53:27.299Z,32.57
2017-12-12T08:55:55.460Z,26.13
2017-12-12T08:58:23.631Z,32.87
2017-12-12T09:00:51.765Z,26.23
2017-12-12T09:03:19.892Z,34.53
2017-12-12T09:05:48.027Z,35.70
2017-12-12T09:08:16.127Z,29.50
2017-12-12T09:10:44.224Z,27.40
2017-12-12T09:13:13.361Z,27.80
2017-12-12T09:15:41.579Z,29.80
2017-12-12T09:18:09.768Z,28.13
2017-12-12T09:20:38.987Z,24.87
2017-12-12T09:23:07.180Z,39.67
2017-12-12T09:25:35.287Z,27.23
2017-12-12T09:28:03.356Z,25.53
2017-12-12T09:30:31.521Z,24.83
2017-12-12T09:33:00.393Z,31.00
2017-12-12T09:35:29.351Z,25.80
2017-12-12T09:37:57.423Z,25.50
2017-12-12T09:40:25.553Z,33.23
2017-12-12T09:42:53.720Z,27.67
2017-12-12T09:45:22.613Z,24.77
2017-12-12T09:47:51.576Z,34.77
2017-12-12T09:50:20.845Z,31.00
2017-12-12T09:52:48.956Z,32.47
2017-12-12T09:55:17.115Z,28.37
2017-12-12T09:57:45.208Z,34.73
2017-12-12T10:00:14.115Z,29.30
2017-12-12T10:02:43.120Z,25.13
2017-12-12T10:05:11.203Z,25.50
2017-12-12T10:07:41.314Z,26.60
2017-12-12T10:10:09.516Z,26.23
2017-12-12T10:12:37.654Z,27.37
2017-12-12T10:15:05.803Z,30.73
2017-12-12T10:17:33.876Z,28.03
2017-12-12T10:20:01.992Z,31.87
2017-12-12T10:22:30.084Z,35.40
2017-12-12T10:24:58.204Z,33.67
2017-12-12T10:27:26.316Z,41.53
2017-12-12T10:29:54.471Z,34.73
2017-12-12T10:32:22.676Z,35.50
2017-12-12T10:34:50.792Z,37.90
2017-12-12T10:37:19.647Z,42.07
2017-12-12T10:39:47.729Z,39.90
2017-12-12T10:42:15.944Z,50.20
2017-12-12T10:44:44.097Z,47.70
2017-12-12T10:47:12.231Z,41.80
2017-12-12T10:49:40.316Z,38.00
2017-12-12T10:52:08.445Z,39.17
2017-12-12T10:54:36.557Z,41.03
2017-12-12T10:57:04.701Z,42.70
2017-12-12T10:59:32.788Z,52.20
2017-12-12T11:02:00.911Z,41.63
2017-12-12T11:04:29.059Z,42.70
2017-12-12T11:06:57.167Z,38.23
2017-12-12T11:09:25.332Z,40.10
2017-12-12T11:11:54.398Z,39.00
2017-12-12T11:14:22.492Z,38.27
2017-12-12T11:16:50.767Z,37.43
2017-12-12T11:19:19.654Z,36.73
2017-12-12T11:21:49.127Z,40.80
2017-12-12T11:24:18.277Z,38.97
2017-12-12T11:26:47.151Z,39.23
2017-12-12T11:29:15.469Z,30.17
2017-12-12T11:31:44.612Z,40.57
2017-12-12T11:34:12.732Z,31.70
2017-12-12T11:36:40.804Z,29.03
2017-12-12T11:39:08.959Z,21.80
2017-12-12T11:41:37.839Z,26.33
2017-12-12T11:44:06.715Z,28.90
2017-12-12T11:46:34.847Z,26.73
2017-12-12T11:49:03.064Z,30.17
2017-12-12T11:51:32.103Z,24.50
2017-12-12T11:54:00.216Z,23.13
2017-12-12T11:56:29.343Z,22.13
2017-12-12T11:58:57.957Z,25.20
2017-12-12T12:01:26.217Z,25.83
2017-12-12T12:03:55.114Z,24.27
2017-12-12T12:06:23.544Z,28.80
2017-12-12T12:08:51.788Z,22.63
2017-12-12T12:11:19.857Z,24.93
2017-12-12T12:13:48.145Z,23.40
2017-12-12T12:16:16.248Z,22.30
2017-12-12T12:18:44.359Z,25.70
2017-12-12T12:21:12.680Z,26.20
2017-12-12T12:23:40.787Z,22.83
2017-12-12T12:26:09.083Z,19.53
2017-12-12T12:28:39.159Z,26.73
2017-12-12T12:31:07.269Z,21.93
2017-12-12T12:33:35.392Z,23.07
2017-12-12T12:36:03.499Z,20.53
2017-12-12T12:38:31.584Z,24.17
2017-12-12T12:41:00.580Z,23.53
2017-12-12T12:43:28.681Z,21.53
2017-12-12T12:45:56.868Z,20.57
2017-12-12T12:48:25.724Z,27.43
2017-12-12T12:50:55.412Z,17.93
2017-12-12T12:53:23.795Z,14.90
2017-12-12T12:55:51.921Z,21.47
2017-12-12T12:58:20.032Z,16.57
2017-12-12T13:00:48.292Z,17.60
2017-12-12T13:03:16.533Z,18.57
2017-12-12T13:05:44.639Z,19.83
2017-12-12T13:08:12.762Z,15.53
2017-12-12T13:10:41.735Z,18.87
2017-12-12T13:13:09.906Z,15.90
2017-12-12T13:15:38.140Z,22.47
2017-12-12T13:18:06.333Z,21.17
2017-12-12T13:20:36.409Z,16.50
2017-12-12T13:23:04.534Z,23.73
2017-12-12T13:25:32.692Z,26.33
2017-12-12T13:28:00.904Z,26.40
2017-12-12T13:30:29.776Z,16.00
2017-12-12T13:32:57.921Z,18.47
2017-12-12T13:35:26.011Z,13.57
2017-12-12T13:37:54.149Z,20.27
2017-12-12T13:40:22.311Z,16.03
2017-12-12T13:42:50.404Z,17.37
2017-12-12T13:45:18.544Z,18.53
2017-12-12T13:47:47.473Z,17.20
2017-12-12T13:50:15.640Z,20.23
2017-12-12T13:52:43.886Z,18.33
2017-12-12T13:55:12.232Z,19.33
2017-12-12T13:57:40.345Z,17.43
2017-12-12T14:00:09.182Z,16.30
2017-12-12T14:02:37.342Z,15.90
2017-12-12T14:05:05.505Z,13.60
2017-12-12T14:07:33.635Z,16.73
2017-12-12T14:10:02.533Z,12.90
2017-12-12T14:12:30.755Z,14.13
2017-12-12T14:14:58.971Z,13.13
2017-12-12T14:17:27.082Z,13.30
2017-12-12T14:19:55.206Z,14.40
2017-12-12T14:22:23.363Z,12.00
2017-12-12T14:24:51.556Z,15.40
2017-12-12T14:27:19.627Z,15.40
2017-12-12T14:29:47.759Z,13.27
2017-12-12T14:32:15.954Z,16.23
2017-12-12T14:34:44.107Z,16.27
2017-12-12T14:37:12.364Z,16.07
2017-12-12T14:39:40.466Z,14.73
2017-12-12T14:42:08.645Z,15.03
2017-12-12T14:44:36.777Z,15.07
2017-12-12T14:47:04.939Z,15.87
2017-12-12T14:49:34.722Z,15.10
2017-12-12T14:52:02.840Z,19.23
2017-12-12T14:54:31.035Z,14.83
2017-12-12T14:56:59.164Z,15.60
2017-12-12T14:59:27.641Z,15.53
2017-12-12T15:01:55.720Z,17.80
2017-12-12T15:04:24.119Z,20.40
2017-12-12T15:06:52.275Z,17.37
2017-12-12T15:09:22.083Z,15.77
2017-12-12T15:11:51.125Z,16.17
2017-12-12T15:14:19.329Z,15.00
2017-12-12T15:16:47.896Z,16.80
2017-12-12T15:19:16.183Z,15.30
2017-12-12T15:21:44.368Z,14.47
2017-12-12T15:24:12.627Z,16.37
2017-12-12T15:26:40.760Z,15.50
2017-12-12T15:29:08.924Z,14.53
2017-12-12T15:31:37.267Z,12.23
2017-12-12T15:34:05.364Z,13.63
2017-12-12T15:36:34.416Z,14.93
2017-12-12T15:39:02.801Z,13.90
2017-12-12T15:41:30.930Z,13.23
2017-12-12T15:43:59.088Z,12.30
2017-12-12T15:46:27.176Z,13.17
2017-12-12T15:48:55.349Z,13.83
2017-12-12T15:51:23.435Z,16.33
2017-12-12T15:53:51.547Z,20.37
2017-12-12T15:56:19.678Z,17.67
2017-12-12T15:58:47.765Z,14.50
2017-12-12T16:01:15.873Z,14.40
2017-12-12T16:03:43.991Z,15.90
2017-12-12T16:06:12.056Z,14.87
2017-12-12T16:08:40.178Z,12.63
2017-12-12T16:11:08.432Z,12.23
2017-12-12T16:13:36.580Z,15.13
2017-12-12T16:16:04.757Z,14.47
2017-12-12T16:18:32.852Z,24.63
2017-12-12T16:21:01.176Z,17.97
2017-12-12T16:23:29.341Z,13.70
2017-12-12T16:25:58.652Z,13.13
2017-12-12T16:28:26.932Z,14.93
2017-12-12T16:30:55.886Z,16.53
2017-12-12T16:33:24.065Z,16.37
2017-12-12T16:35:52.482Z,14.97
2017-12-12T16:38:21.348Z,13.40
2017-12-12T16:40:50.054Z,15.57
2017-12-12T16:43:18.304Z,17.47
2017-12-12T16:45:46.400Z,20.50
2017-12-12T16:48:14.683Z,23.00
2017-12-12T16:50:42.767Z,22.60
2017-12-12T16:53:10.867Z,22.30
2017-12-12T16:55:38.995Z,24.87
2017-12-12T16:58:07.918Z,25.93
2017-12-12T17:00:36.168Z,24.83
2017-12-12T17:03:05.057Z,30.23
2017-12-12T17:05:33.472Z,22.73
2017-12-12T17:08:01.593Z,28.47
2017-12-12T17:10:29.692Z,27.73
2017-12-12T17:12:58.660Z,32.10
2017-12-12T17:15:27.133Z,30.90
2017-12-12T17:17:55.396Z,29.33
2017-12-12T17:20:23.848Z,37.10
2017-12-12T17:22:51.966Z,29.40
2017-12-12T17:25:20.051Z,33.73
2017-12-12T17:27:48.234Z,39.40
2017-12-12T17:30:17.181Z,41.73
2017-12-12T17:32:46.269Z,36.90
2017-12-12T17:35:14.460Z,40.20
2017-12-12T17:37:42.534Z,46.87
2017-12-12T17:40:10.912Z,42.77
2017-12-12T17:42:38.991Z,49.47
2017-12-12T17:45:07.254Z,50.93
2017-12-12T17:47:35.353Z,49.13
2017-12-12T17:50:03.441Z,52.40
2017-12-12T17:52:32.350Z,51.97
2017-12-12T17:55:01.226Z,47.93
2017-12-12T17:57:29.356Z,45.27
2017-12-12T17:59:57.472Z,53.90
2017-12-12T18:02:26.401Z,56.73
2017-12-12T18:04:54.510Z,53.60
2017-12-12T18:07:22.635Z,53.20
2017-12-12T18:09:50.756Z,50.97
2017-12-12T18:12:18.892Z,58.23
2017-12-12T18:14:46.985Z,46.90
2017-12-12T18:17:15.063Z,55.33
2017-12-12T18:19:43.192Z,52.70
2017-12-12T18:22:11.338Z,60.60
2017-12-12T18:24:40.249Z,53.03
2017-12-12T18:27:08.363Z,55.83
2017-12-12T18:29:36.664Z,53.10
2017-12-12T18:32:04.801Z,52.13
2017-12-12T18:34:32.897Z,52.03
2017-12-12T18:37:01.068Z,43.63
2017-12-12T18:39:29.171Z,48.67
2017-12-12T18:41:57.319Z,45.30
2017-12-12T18:44:25.468Z,44.00
2017-12-12T18:46:53.623Z,49.13
2017-12-12T18:49:21.720Z,46.17
2017-12-12T18:51:49.847Z,44.20
2017-12-12T18:54:17.946Z,39.90
2017-12-12T18:56:46.117Z,47.73
2017-12-12T18:59:14.211Z,44.50
2017-12-12T19:01:42.379Z,44.23
2017-12-12T19:04:13.699Z,38.17
2017-12-12T19:06:41.805Z,37.63
2017-12-12T19:09:10.042Z,41.43
2017-12-12T19:11:38.153Z,38.30
2017-12-12T19:14:06.262Z,38.40
2017-12-12T19:16:34.373Z,40.60
2017-12-12T19:19:02.552Z,33.03
2017-12-12T19:21:30.643Z,36.07
2017-12-12T19:23:58.760Z,30.90
2017-12-12T19:26:27.614Z,35.93
2017-12-12T19:28:55.963Z,35.13
2017-12-12T19:31:24.114Z,30.57
2017-12-12T19:33:52.351Z,36.57
2017-12-12T19:36:20.593Z,32.27
2017-12-12T19:38:58.828Z,34.20
2017-12-12T19:41:29.104Z,34.03
2017-12-12T19:44:02.163Z,40.27
2017-12-12T19:46:30.296Z,28.57
2017-12-12T19:48:58.449Z,32.00
2017-12-12T19:51:26.697Z,34.30
2017-12-12T19:53:54.983Z,33.50
2017-12-12T19:56:23.860Z,31.73
2017-12-12T19:58:52.996Z,33.33
2017-12-12T20:01:21.155Z,34.67
2017-12-12T20:03:49.440Z,29.40
2017-12-12T20:06:17.596Z,25.13
2017-12-12T20:08:46.513Z,30.57
2017-12-12T20:11:14.602Z,31.13
2017-12-12T20:13:42.931Z,35.73
2017-12-12T20:16:11.200Z,27.00
2017-12-12T20:18:39.456Z,27.00
2017-12-12T20:21:07.702Z,32.00
2017-12-12T20:23:35.942Z,34.13
2017-12-12T20:26:05.064Z,28.50
2017-12-12T20:28:33.287Z,28.27
2017-12-12T20:31:01.550Z,35.60
2017-12-12T20:33:33.325Z,34.10
2017-12-12T20:36:01.759Z,28.27
2017-12-12T20:38:33.384Z,28.53
2017-12-12T20:41:02.200Z,30.13
2017-12-12T20:43:30.651Z,25.07
2017-12-12T20:45:58.736Z,32.47
2017-12-12T20:48:27.596Z,32.10
2017-12-12T20:50:55.688Z,28.37
2017-12-12T20:53:23.808Z,34.80
2017-12-12T20:55:52.185Z,43.23
2017-12-12T20:58:20.318Z,33.90
2017-12-12T21:00:49.284Z,37.10
2017-12-12T21:03:18.308Z,28.50
2017-12-12T21:05:46.448Z,36.97
2017-12-12T21:08:14.588Z,29.97
2017-12-12T21:10:42.768Z,33.97
2017-12-12T21:13:10.952Z,36.70
2017-12-12T21:15:40.145Z,32.10
2017-12-12T21:18:08.232Z,29.57
2017-12-12T21:20:36.346Z,37.50
2017-12-12T21:23:04.459Z,32.90
2017-12-12T21:25:32.611Z,38.80
2017-12-12T21:28:00.697Z,33.57
2017-12-12T21:30:28.844Z,32.10
2017-12-12T21:32:56.990Z,37.07
2017-12-12T21:35:26.009Z,36.10
2017-12-12T21:37:54.347Z,40.20
2017-12-12T21:40:22.463Z,38.73
2017-12-12T21:42:50.658Z,35.47
2017-12-12T21:45:18.794Z,43.30
2017-12-12T21:47:47.667Z,34.63
2017-12-12T21:50:15.821Z,42.73
2017-12-12T21:52:44.088Z,33.30
2017-12-12T21:55:12.403Z,40.10
2017-12-12T21:57:42.516Z,35.57
2017-12-12T22:00:10.785Z,41.00
2017-12-12T22:02:39.075Z,53.50
2017-12-12T22:05:09.924Z,59.43
2017-12-12T22:07:38.133Z,36.27
2017-12-12T22:10:06.297Z,34.40
2017-12-12T22:12:34.472Z,28.30
2017-12-12T22:15:02.841Z,27.00
2017-12-12T22:17:31.097Z,33.53
2017-12-12T22:19:59.348Z,29.50
2017-12-12T22:22:27.547Z,25.90
2017-12-12T22:24:56.450Z,21.23
2017-12-12T22:27:25.346Z,21.40
2017-12-12T22:29:53.510Z,28.63
2017-12-12T22:32:21.842Z,25.70
2017-12-12T22:34:53.498Z,22.70
2017-12-12T22:37:21.620Z,23.50
2017-12-12T22:39:49.907Z,18.43
2017-12-12T22:42:18.040Z,16.60
2017-12-12T22:44:46.258Z,16.00
2017-12-12T22:47:15.410Z,15.10
2017-12-12T22:49:43.666Z,12.13
2017-12-12T22:52:11.928Z,12.30
2017-12-12T22:54:40.087Z,46.73
2017-12-12T22:57:08.376Z,31.83
2017-12-12T22:59:37.457Z,14.40
2017-12-12T23:02:05.613Z,9.70
2017-12-12T23:04:34.540Z,12.70
2017-12-12T23:07:02.624Z,16.73
2017-12-12T23:09:30.831Z,12.53
2017-12-12T23:11:58.955Z,12.13
2017-12-12T23:14:27.103Z,15.80
2017-12-12T23:16:55.207Z,11.40
2017-12-12T23:19:23.453Z,14.23
2017-12-12T23:21:51.841Z,11.93
2017-12-12T23:24:19.945Z,14.07
2017-12-12T23:26:48.136Z,12.43
2017-12-12T23:29:17.146Z,9.73
2017-12-12T23:31:47.288Z,13.23
2017-12-12T23:34:15.387Z,30.00
2017-12-12T23:36:43.522Z,17.30
2017-12-12T23:39:11.632Z,22.70
2017-12-12T23:41:39.777Z,20.10
2017-12-12T23:44:08.731Z,10.83
2017-12-12T23:46:36.916Z,14.80
2017-12-12T23:49:05.037Z,15.70
2017-12-12T23:51:33.665Z,11.70
2017-12-12T23:54:01.753Z,14.13
2017-12-12T23:56:29.835Z,17.23
2017-12-12T23:58:57.995Z,18.43
